• Join FlightAware (Why Join?)
  • Login
  • US Flag 
04:47AM EDT


 

Airport Tracker/Info


-or-


 

Live Flight TrackerFlight Track Log ✈ QXE2594 ✈ 29-Apr-2013 ✈ KSEA - KGEG

Flight Track Log - Related Links

Times and Time Zones

All times are in EDT time to prevent confusion due to time zone crossing. See the QXE2594 flight status page for this flight to view local times or setup timezone preferences in your user account.

Time Position Orientation Groundspeed Altitude Reporting Facility
EDT Latitude Longitude Course Direction KTS MPH feet Rate Location/Type
05:03PM 47.3967 -121.6978 98° East 293 337 11,600  Level Seattle Center
05:04PM 47.3853 -121.5725 98° East 311 358 13,500 1,800 Climbing Seattle Center
05:05PM 47.3925 -121.4422 85° East 321 369 15,300 1,740 Climbing Seattle Center
05:06PM 47.3958 -121.3058 88° East 337 388 17,100 1,680 Climbing Seattle Center
05:07PM 47.3989 -121.1344 88° East 353 406 18,800 900 Climbing Seattle Center
05:08PM 47.4003 -120.9864 89° East 364 419 19,000 60 Climbing Seattle Center
05:09PM 47.4047 -120.8422 87° East 359 413 19,000  Level Seattle Center
05:10PM 47.4092 -120.7067 87° East 362 417 19,000 -60 Level Seattle Center
05:11PM 47.4108 -120.5519 89° East 375 432 18,900  Descending Seattle Center
05:12PM 47.4125 -120.3706 89° East 370 426 19,000  Climbing Seattle Center
05:13PM 47.4150 -120.2203 89° East 368 423 19,000 -60 Level Seattle Center
05:14PM 47.4175 -120.0669 89° East 374 430 18,900  Descending Seattle Center
05:15PM 47.4186 -119.9158 89° East 370 426 19,000  Climbing Seattle Center
05:16PM 47.4192 -119.7644 90° East 370 426 19,000  Level Seattle Center
05:17PM 47.4208 -119.6167 89° East 364 419 19,000  Level Seattle Center
05:19PM 47.4195 -119.4495 91° East  Level FlightAware Approximate
05:26PM 47.4167 -118.6135 90° East  Level FlightAware Approximate
05:27PM 47.4167 -118.4940 90° East  Level FlightAware Approximate
05:28PM 47.4167 -118.3746 90° East  Level FlightAware Approximate
05:29PM 47.4191 -118.2557 72° East  Level FlightAware Approximate
05:30PM 47.4444 -118.1423 72° East  Level FlightAware Approximate
05:31PM 47.4696 -118.0287 72° East  Level FlightAware Approximate
05:32PM 47.4996 -117.9180 64° Northeast  Level FlightAware Approximate
05:33PM 47.5277 -117.8058 70° East  Level FlightAware Approximate
05:34PM 47.5605 -117.6965 67° East  Level FlightAware Approximate
05:35PM 47.5947 -117.5882 59° Northeast  Level FlightAware Approximate
05:36PM 47.6167 -117.5333 59° Northeast  Level FlightAware Approximate
05:37PM 47.6190 -117.5352 59° Northeast  Level Estimated
05:38PM 47.6167 -117.5333 59° Northeast  Level FlightAware Approximate
05:39PM 47.6190 -117.5352 59° Northeast  Level Estimated
05:40PM 47.6167 -117.5333 59° Northeast  Level FlightAware Approximate
05:41PM 47.6190 -117.5352 59° Northeast  Level Estimated
05:42PM 47.6167 -117.5333 59° Northeast  Level FlightAware Approximate
05:43PM 47.6190 -117.5352 59° Northeast  Level Estimated
05:44PM 47.6167 -117.5333 59° Northeast  Level FlightAware Approximate
05:45PM 47.6190 -117.5352 59° Northeast  Level Estimated
05:46PM 47.6167 -117.5333 59° Northeast  Level FlightAware Approximate
05:47PM 47.6190 -117.5352 59° Northeast  Level Estimated
05:48PM 47.6167 -117.5333 59° Northeast  Level FlightAware Approximate
05:49PM 47.6190 -117.5352 59° Northeast  Level Estimated
05:50PM 47.6167 -117.5333 59° Northeast  Level FlightAware Approximate
05:51PM 47.6190 -117.5352 59° Northeast  Level Estimated
05:52PM 47.6167 -117.5333 59° Northeast  Level FlightAware Approximate